sensor_id;sensor_type;location;lat;lon;timestamp;pressure;altitude;pressure_sealevel;temperature;humidity
32761;BME280;19126;47.472;7.850;2024-02-23T00:00:30;73266.16;;;-146.25;86.80
32761;BME280;19126;47.472;7.850;2024-02-23T00:02:57;73290.22;;;-146.25;86.82
32761;BME280;19126;47.472;7.850;2024-02-23T00:05:25;73292.22;;;-146.25;86.36
32761;BME280;19126;47.472;7.850;2024-02-23T00:07:52;73296.22;;;-146.25;86.08
32761;BME280;19126;47.472;7.850;2024-02-23T00:10:19;73316.28;;;-146.25;85.73
32761;BME280;19126;47.472;7.850;2024-02-23T00:12:47;73316.28;;;-146.25;84.50
32761;BME280;19126;47.472;7.850;2024-02-23T00:15:14;73328.28;;;-146.25;84.18
32761;BME280;19126;47.472;7.850;2024-02-23T00:17:42;73336.31;;;-146.25;84.40
32761;BME280;19126;47.472;7.850;2024-02-23T00:20:10;73350.34;;;-146.25;84.65
32761;BME280;19126;47.472;7.850;2024-02-23T00:22:39;73402.44;;;-146.25;84.84
32761;BME280;19126;47.472;7.850;2024-02-23T00:25:06;73428.50;;;-146.25;84.42
32761;BME280;19126;47.472;7.850;2024-02-23T00:27:34;73472.59;;;-146.25;84.14
32761;BME280;19126;47.472;7.850;2024-02-23T00:30:01;73494.63;;;-146.25;83.85
32761;BME280;19126;47.472;7.850;2024-02-23T00:32:29;73506.66;;;-146.25;83.38
32761;BME280;19126;47.472;7.850;2024-02-23T00:34:57;73516.69;;;-146.25;83.14
32761;BME280;19126;47.472;7.850;2024-02-23T00:37:24;73504.66;;;-146.25;82.69
32761;BME280;19126;47.472;7.850;2024-02-23T00:39:53;73518.69;;;-146.25;81.97
32761;BME280;19126;47.472;7.850;2024-02-23T00:42:20;73544.75;;;-146.25;81.86
32761;BME280;19126;47.472;7.850;2024-02-23T00:44:47;73546.75;;;-146.25;81.61
32761;BME280;19126;47.472;7.850;2024-02-23T00:47:17;73528.72;;;-146.25;79.92
32761;BME280;19126;47.472;7.850;2024-02-23T00:49:44;73534.72;;;-146.25;81.05
32761;BME280;19126;47.472;7.850;2024-02-23T00:52:12;73544.75;;;-146.25;81.02
32761;BME280;19126;47.472;7.850;2024-02-23T00:54:39;73556.78;;;-146.25;80.50
32761;BME280;19126;47.472;7.850;2024-02-23T00:57:08;73558.78;;;-146.25;80.02
32761;BME280;19126;47.472;7.850;2024-02-23T00:59:35;73558.78;;;-146.25;79.20
32761;BME280;19126;47.472;7.850;2024-02-23T01:02:02;73554.75;;;-146.25;77.77
32761;BME280;19126;47.472;7.850;2024-02-23T01:04:30;73560.78;;;-146.25;77.36
32761;BME280;19126;47.472;7.850;2024-02-23T01:06:58;73566.78;;;-146.25;76.41
32761;BME280;19126;47.472;7.850;2024-02-23T01:09:25;73572.81;;;-146.25;75.74
32761;BME280;19126;47.472;7.850;2024-02-23T01:11:53;73574.81;;;-146.25;76.21
32761;BME280;19126;47.472;7.850;2024-02-23T01:14:21;73560.78;;;-146.25;76.43
32761;BME280;19126;47.472;7.850;2024-02-23T01:16:49;73558.78;;;-146.25;77.06
32761;BME280;19126;47.472;7.850;2024-02-23T01:19:16;73562.78;;;-146.25;77.50
32761;BME280;19126;47.472;7.850;2024-02-23T01:21:44;73566.78;;;-146.25;77.88
32761;BME280;19126;47.472;7.850;2024-02-23T01:24:12;73564.78;;;-146.25;78.75
32761;BME280;19126;47.472;7.850;2024-02-23T01:26:39;73550.75;;;-146.25;79.05
32761;BME280;19126;47.472;7.850;2024-02-23T01:29:07;73554.75;;;-146.25;81.00
32761;BME280;19126;47.472;7.850;2024-02-23T01:31:35;73552.75;;;-146.25;82.46
32761;BME280;19126;47.472;7.850;2024-02-23T01:34:03;73562.78;;;-146.25;82.64
32761;BME280;19126;47.472;7.850;2024-02-23T01:36:30;73568.78;;;-146.25;82.69
32761;BME280;19126;47.472;7.850;2024-02-23T01:38:57;73568.78;;;-146.25;82.23
32761;BME280;19126;47.472;7.850;2024-02-23T01:41:24;73562.78;;;-146.25;82.81
32761;BME280;19126;47.472;7.850;2024-02-23T01:43:52;73562.78;;;-146.25;84.54
32761;BME280;19126;47.472;7.850;2024-02-23T01:46:19;73542.75;;;-146.25;86.00
32761;BME280;19126;47.472;7.850;2024-02-23T01:48:48;73546.75;;;-146.25;86.62
32761;BME280;19126;47.472;7.850;2024-02-23T01:51:16;73536.72;;;-146.25;87.02
32761;BME280;19126;47.472;7.850;2024-02-23T01:53:43;73546.75;;;-146.25;86.95
32761;BME280;19126;47.472;7.850;2024-02-23T01:56:12;73552.75;;;-146.25;86.00
32761;BME280;19126;47.472;7.850;2024-02-23T01:58:43;73564.78;;;-146.25;84.60
32761;BME280;19126;47.472;7.850;2024-02-23T02:01:11;73570.78;;;-146.25;83.51
32761;BME280;19126;47.472;7.850;2024-02-23T02:03:38;73562.78;;;-146.25;82.47
32761;BME280;19126;47.472;7.850;2024-02-23T02:06:10;73562.78;;;-146.25;81.51
32761;BME280;19126;47.472;7.850;2024-02-23T02:08:37;73564.78;;;-146.25;80.46
32761;BME280;19126;47.472;7.850;2024-02-23T02:11:05;73556.78;;;-146.25;80.23
32761;BME280;19126;47.472;7.850;2024-02-23T02:13:32;73554.75;;;-146.25;79.65
32761;BME280;19126;47.472;7.850;2024-02-23T02:16:01;73552.75;;;-146.25;78.48
32761;BME280;19126;47.472;7.850;2024-02-23T02:18:29;73548.75;;;-146.25;78.09
32761;BME280;19126;47.472;7.850;2024-02-23T02:20:57;73548.75;;;-146.25;77.78
32761;BME280;19126;47.472;7.850;2024-02-23T02:23:26;73554.75;;;-146.25;76.56
32761;BME280;19126;47.472;7.850;2024-02-23T02:25:53;73534.72;;;-146.25;76.60
32761;BME280;19126;47.472;7.850;2024-02-23T02:28:21;73538.72;;;-146.25;77.58
32761;BME280;19126;47.472;7.850;2024-02-23T02:30:49;73526.69;;;-146.25;77.52
32761;BME280;19126;47.472;7.850;2024-02-23T02:33:16;73520.69;;;-146.25;78.54
32761;BME280;19126;47.472;7.850;2024-02-23T02:35:43;73528.72;;;-146.25;78.32
32761;BME280;19126;47.472;7.850;2024-02-23T02:38:11;73526.69;;;-146.25;79.08
32761;BME280;19126;47.472;7.850;2024-02-23T02:40:39;73528.72;;;-146.25;78.94
32761;BME280;19126;47.472;7.850;2024-02-23T02:43:07;73520.69;;;-146.25;78.49
32761;BME280;19126;47.472;7.850;2024-02-23T02:45:34;73516.69;;;-146.25;79.74
32761;BME280;19126;47.472;7.850;2024-02-23T02:48:02;73526.69;;;-146.25;79.99
32761;BME280;19126;47.472;7.850;2024-02-23T02:50:30;73518.69;;;-146.25;80.37
32761;BME280;19126;47.472;7.850;2024-02-23T02:52:57;73524.69;;;-146.25;80.40
32761;BME280;19126;47.472;7.850;2024-02-23T02:55:25;73532.72;;;-146.25;80.74
32761;BME280;19126;47.472;7.850;2024-02-23T02:57:53;73530.72;;;-146.25;80.46
32761;BME280;19126;47.472;7.850;2024-02-23T03:00:20;73526.69;;;-146.25;81.27
32761;BME280;19126;47.472;7.850;2024-02-23T03:02:47;73528.72;;;-146.25;81.61
32761;BME280;19126;47.472;7.850;2024-02-23T03:05:15;73540.72;;;-146.25;82.25
32761;BME280;19126;47.472;7.850;2024-02-23T03:07:42;73534.72;;;-146.25;82.40
32761;BME280;19126;47.472;7.850;2024-02-23T03:10:09;73536.72;;;-146.25;82.11
32761;BME280;19126;47.472;7.850;2024-02-23T03:12:37;73522.69;;;-146.25;82.36
32761;BME280;19126;47.472;7.850;2024-02-23T03:15:06;73526.69;;;-146.25;82.69
32761;BME280;19126;47.472;7.850;2024-02-23T03:17:34;73518.69;;;-146.25;83.71
32761;BME280;19126;47.472;7.850;2024-02-23T03:20:02;73518.69;;;-146.25;83.56
32761;BME280;19126;47.472;7.850;2024-02-23T03:22:31;73522.69;;;-146.25;83.93
32761;BME280;19126;47.472;7.850;2024-02-23T03:24:58;73524.69;;;-146.25;84.49
32761;BME280;19126;47.472;7.850;2024-02-23T03:27:28;73530.72;;;-146.25;85.50
32761;BME280;19126;47.472;7.850;2024-02-23T03:29:56;73534.72;;;-146.25;85.87
32761;BME280;19126;47.472;7.850;2024-02-23T03:32:25;73524.69;;;-146.25;87.16
32761;BME280;19126;47.472;7.850;2024-02-23T03:34:52;73528.72;;;-146.25;87.11
32761;BME280;19126;47.472;7.850;2024-02-23T03:37:20;73518.69;;;-146.25;87.12
32761;BME280;19126;47.472;7.850;2024-02-23T03:39:47;73532.72;;;-146.25;87.40
32761;BME280;19126;47.472;7.850;2024-02-23T03:42:15;73542.75;;;-146.25;87.11
32761;BME280;19126;47.472;7.850;2024-02-23T03:44:42;73530.72;;;-146.25;87.50
32761;BME280;19126;47.472;7.850;2024-02-23T03:47:09;73526.69;;;-146.25;88.30
32761;BME280;19126;47.472;7.850;2024-02-23T03:49:39;73520.69;;;-146.25;87.99
32761;BME280;19126;47.472;7.850;2024-02-23T03:52:06;73516.69;;;-146.25;87.72
32761;BME280;19126;47.472;7.850;2024-02-23T03:54:36;73516.69;;;-146.25;88.05
32761;BME280;19126;47.472;7.850;2024-02-23T03:57:03;73512.69;;;-146.25;86.99
32761;BME280;19126;47.472;7.850;2024-02-23T03:59:30;73506.66;;;-146.25;86.36
32761;BME280;19126;47.472;7.850;2024-02-23T04:01:58;73508.66;;;-146.25;86.08
32761;BME280;19126;47.472;7.850;2024-02-23T04:04:25;73516.69;;;-146.25;85.39
32761;BME280;19126;47.472;7.850;2024-02-23T04:06:53;73516.69;;;-146.25;85.75
32761;BME280;19126;47.472;7.850;2024-02-23T04:09:21;73524.69;;;-146.25;85.91
32761;BME280;19126;47.472;7.850;2024-02-23T04:11:49;73534.72;;;-146.25;86.35
32761;BME280;19126;47.472;7.850;2024-02-23T04:14:16;73526.69;;;-146.25;86.08
32761;BME280;19126;47.472;7.850;2024-02-23T04:16:43;73522.69;;;-146.25;83.84
32761;BME280;19126;47.472;7.850;2024-02-23T04:19:10;73528.72;;;-146.25;84.74
32761;BME280;19126;47.472;7.850;2024-02-23T04:21:38;73528.72;;;-146.25;85.05
32761;BME280;19126;47.472;7.850;2024-02-23T04:24:07;73538.72;;;-146.25;85.04
32761;BME280;19126;47.472;7.850;2024-02-23T04:26:34;73538.72;;;-146.25;85.39
32761;BME280;19126;47.472;7.850;2024-02-23T04:29:01;73540.72;;;-146.25;84.73
32761;BME280;19126;47.472;7.850;2024-02-23T04:31:29;73546.75;;;-146.25;85.12
32761;BME280;19126;47.472;7.850;2024-02-23T04:33:56;73530.72;;;-146.25;83.34
32761;BME280;19126;47.472;7.850;2024-02-23T04:36:23;73534.72;;;-146.25;81.14
32761;BME280;19126;47.472;7.850;2024-02-23T04:38:50;73540.72;;;-146.25;82.28
32761;BME280;19126;47.472;7.850;2024-02-23T04:41:21;73546.75;;;-146.25;82.47
32761;BME280;19126;47.472;7.850;2024-02-23T04:43:49;73554.75;;;-146.25;83.08
32761;BME280;19126;47.472;7.850;2024-02-23T04:46:16;73558.78;;;-146.25;83.54
32761;BME280;19126;47.472;7.850;2024-02-23T04:48:44;73572.81;;;-146.25;83.25
32761;BME280;19126;47.472;7.850;2024-02-23T04:51:11;73578.81;;;-146.25;82.72
32761;BME280;19126;47.472;7.850;2024-02-23T04:53:38;73590.84;;;-146.25;82.66
32761;BME280;19126;47.472;7.850;2024-02-23T04:56:06;73568.78;;;-146.25;83.44
32761;BME280;19126;47.472;7.850;2024-02-23T04:58:35;73564.78;;;-146.25;82.50
32761;BME280;19126;47.472;7.850;2024-02-23T05:01:03;73568.78;;;-146.25;81.21
32761;BME280;19126;47.472;7.850;2024-02-23T05:03:31;73574.81;;;-146.25;81.63
32761;BME280;19126;47.472;7.850;2024-02-23T05:05:58;73566.78;;;-146.25;80.30
32761;BME280;19126;47.472;7.850;2024-02-23T05:08:25;73586.84;;;-146.25;80.15
32761;BME280;19126;47.472;7.850;2024-02-23T05:10:53;73602.88;;;-146.25;81.32
32761;BME280;19126;47.472;7.850;2024-02-23T05:13:20;73614.88;;;-146.25;82.05
32761;BME280;19126;47.472;7.850;2024-02-23T05:15:49;73622.91;;;-146.25;84.14
32761;BME280;19126;47.472;7.850;2024-02-23T05:18:17;73638.94;;;-146.25;85.07
32761;BME280;19126;47.472;7.850;2024-02-23T05:20:44;73644.94;;;-146.25;85.86
32761;BME280;19126;47.472;7.850;2024-02-23T05:23:11;73663.00;;;-146.25;86.70
32761;BME280;19126;47.472;7.850;2024-02-23T05:25:41;73667.00;;;-146.25;87.50
32761;BME280;19126;47.472;7.850;2024-02-23T05:28:08;73681.03;;;-146.25;87.65
32761;BME280;19126;47.472;7.850;2024-02-23T05:30:36;73695.06;;;-146.25;87.85
32761;BME280;19126;47.472;7.850;2024-02-23T05:33:05;73701.06;;;-146.25;87.52
32761;BME280;19126;47.472;7.850;2024-02-23T05:35:32;73705.09;;;-146.25;87.43
32761;BME280;19126;47.472;7.850;2024-02-23T05:38:00;73719.13;;;-146.25;87.51
32761;BME280;19126;47.472;7.850;2024-02-23T05:40:27;73725.13;;;-146.25;87.62
32761;BME280;19126;47.472;7.850;2024-02-23T05:42:54;73739.16;;;-146.25;87.93
32761;BME280;19126;47.472;7.850;2024-02-23T05:45:22;73743.16;;;-146.25;87.82
32761;BME280;19126;47.472;7.850;2024-02-23T05:47:49;73745.16;;;-146.25;88.08
32761;BME280;19126;47.472;7.850;2024-02-23T05:50:18;73737.16;;;-146.25;87.48
32761;BME280;19126;47.472;7.850;2024-02-23T05:52:45;73743.16;;;-146.25;88.01
32761;BME280;19126;47.472;7.850;2024-02-23T05:55:13;73755.19;;;-146.25;87.65
32761;BME280;19126;47.472;7.850;2024-02-23T05:57:41;73773.22;;;-146.25;87.71
32761;BME280;19126;47.472;7.850;2024-02-23T06:00:10;73775.22;;;-146.25;87.67
32761;BME280;19126;47.472;7.850;2024-02-23T06:02:38;73785.25;;;-146.25;87.40
32761;BME280;19126;47.472;7.850;2024-02-23T06:05:07;73785.25;;;-146.25;87.10
32761;BME280;19126;47.472;7.850;2024-02-23T06:07:36;73787.25;;;-146.25;86.78
32761;BME280;19126;47.472;7.850;2024-02-23T06:10:04;73797.28;;;-146.25;86.64
32761;BME280;19126;47.472;7.850;2024-02-23T06:12:31;73797.28;;;-146.25;86.47
32761;BME280;19126;47.472;7.850;2024-02-23T06:14:58;73803.28;;;-146.25;86.18
32761;BME280;19126;47.472;7.850;2024-02-23T06:17:26;73803.28;;;-146.25;86.12
32761;BME280;19126;47.472;7.850;2024-02-23T06:19:53;73813.31;;;-146.25;85.99
32761;BME280;19126;47.472;7.850;2024-02-23T06:22:23;73815.31;;;-146.25;86.44
32761;BME280;19126;47.472;7.850;2024-02-23T06:24:52;73825.34;;;-146.25;86.11
32761;BME280;19126;47.472;7.850;2024-02-23T06:27:20;73833.34;;;-146.25;85.91
32761;BME280;19126;47.472;7.850;2024-02-23T06:29:48;73835.38;;;-146.25;85.55
32761;BME280;19126;47.472;7.850;2024-02-23T06:32:16;73849.41;;;-146.25;85.28
32761;BME280;19126;47.472;7.850;2024-02-23T06:34:43;73853.41;;;-146.25;84.71
32761;BME280;19126;47.472;7.850;2024-02-23T06:37:11;73863.44;;;-146.25;84.62
32761;BME280;19126;47.472;7.850;2024-02-23T06:39:39;73867.44;;;-146.25;84.18
32761;BME280;19126;47.472;7.850;2024-02-23T06:42:08;73873.44;;;-146.25;83.68
32761;BME280;19126;47.472;7.850;2024-02-23T06:44:35;73885.47;;;-146.25;83.44
32761;BME280;19126;47.472;7.850;2024-02-23T06:47:03;73885.47;;;-146.25;83.10
32761;BME280;19126;47.472;7.850;2024-02-23T06:49:30;73895.50;;;-146.25;82.91
32761;BME280;19126;47.472;7.850;2024-02-23T06:51:57;73899.50;;;-146.25;82.42
32761;BME280;19126;47.472;7.850;2024-02-23T06:54:25;73909.53;;;-146.25;82.36
32761;BME280;19126;47.472;7.850;2024-02-23T06:56:52;73905.50;;;-146.25;81.60
32761;BME280;19126;47.472;7.850;2024-02-23T06:59:20;73913.53;;;-146.25;81.14
32761;BME280;19126;47.472;7.850;2024-02-23T07:01:50;73907.53;;;-146.25;80.60
32761;BME280;19126;47.472;7.850;2024-02-23T07:04:18;73905.50;;;-146.25;80.46
32761;BME280;19126;47.472;7.850;2024-02-23T07:06:45;73913.53;;;-146.25;80.38
32761;BME280;19126;47.472;7.850;2024-02-23T07:09:13;73909.53;;;-146.25;79.99
32761;BME280;19126;47.472;7.850;2024-02-23T07:11:40;73907.53;;;-146.25;79.94
32761;BME280;19126;47.472;7.850;2024-02-23T07:14:09;73913.53;;;-146.25;79.84
32761;BME280;19126;47.472;7.850;2024-02-23T07:16:40;73919.53;;;-146.25;80.02
32761;BME280;19126;47.472;7.850;2024-02-23T07:19:08;73921.56;;;-146.25;79.63
32761;BME280;19126;47.472;7.850;2024-02-23T07:21:35;73929.56;;;-146.25;79.38
32761;BME280;19126;47.472;7.850;2024-02-23T07:24:03;73919.53;;;-146.25;78.88
32761;BME280;19126;47.472;7.850;2024-02-23T07:26:31;73857.41;;;-146.25;77.87
32761;BME280;19126;47.472;7.850;2024-02-23T07:28:58;73813.31;;;-146.25;77.58
32761;BME280;19126;47.472;7.850;2024-02-23T07:31:25;73757.19;;;-146.25;76.87
32761;BME280;19126;47.472;7.850;2024-02-23T07:33:54;73717.09;;;-146.25;76.82
32761;BME280;19126;47.472;7.850;2024-02-23T07:36:22;73699.06;;;-146.25;80.47
32761;BME280;19126;47.472;7.850;2024-02-23T07:38:49;73693.06;;;-146.25;82.86
32761;BME280;19126;47.472;7.850;2024-02-23T07:41:16;73689.03;;;-146.25;84.09
32761;BME280;19126;47.472;7.850;2024-02-23T07:43:44;73695.06;;;-146.25;85.41
32761;BME280;19126;47.472;7.850;2024-02-23T07:46:12;73709.09;;;-146.25;86.92
32761;BME280;19126;47.472;7.850;2024-02-23T07:48:39;73713.09;;;-146.25;87.86
32761;BME280;19126;47.472;7.850;2024-02-23T07:51:09;73709.09;;;-146.25;87.69
32761;BME280;19126;47.472;7.850;2024-02-23T07:53:36;73683.03;;;-146.25;87.08
32761;BME280;19126;47.472;7.850;2024-02-23T07:56:07;73685.03;;;-146.25;87.73
32761;BME280;19126;47.472;7.850;2024-02-23T07:58:34;73689.03;;;-146.25;87.28
32761;BME280;19126;47.472;7.850;2024-02-23T08:01:03;73687.03;;;-146.25;88.00
32761;BME280;19126;47.472;7.850;2024-02-23T08:03:31;73679.03;;;-146.25;87.78
32761;BME280;19126;47.472;7.850;2024-02-23T08:05:58;73667.00;;;-146.25;88.19
32761;BME280;19126;47.472;7.850;2024-02-23T08:08:28;73638.94;;;-146.25;88.13
32761;BME280;19126;47.472;7.850;2024-02-23T08:10:58;73612.88;;;-146.25;88.54
32761;BME280;19126;47.472;7.850;2024-02-23T08:13:25;73590.84;;;-146.25;88.24
32761;BME280;19126;47.472;7.850;2024-02-23T08:15:52;73554.75;;;-146.25;87.52
32761;BME280;19126;47.472;7.850;2024-02-23T08:18:20;73526.69;;;-146.25;88.13
32761;BME280;19126;47.472;7.850;2024-02-23T08:20:48;73494.63;;;-146.25;87.23
32761;BME280;19126;47.472;7.850;2024-02-23T08:23:15;73470.59;;;-146.25;85.60
32761;BME280;19126;47.472;7.850;2024-02-23T08:25:47;73440.53;;;-146.25;84.94
32761;BME280;19126;47.472;7.850;2024-02-23T08:28:14;73420.47;;;-146.25;83.75
32761;BME280;19126;47.472;7.850;2024-02-23T08:30:42;73402.44;;;-146.25;81.58
32761;BME280;19126;47.472;7.850;2024-02-23T08:33:09;73378.41;;;-146.25;78.59
32761;BME280;19126;47.472;7.850;2024-02-23T08:35:36;73340.31;;;-146.25;78.17
32761;BME280;19126;47.472;7.850;2024-02-23T08:38:04;73330.28;;;-146.25;76.38
32761;BME280;19126;47.472;7.850;2024-02-23T08:40:31;73290.22;;;-146.25;77.66
32761;BME280;19126;47.472;7.850;2024-02-23T08:43:00;73244.13;;;-146.25;76.00
32761;BME280;19126;47.472;7.850;2024-02-23T08:45:29;73200.03;;;-146.25;77.39
32761;BME280;19126;47.472;7.850;2024-02-23T08:47:56;73184.00;;;-146.25;71.16
32761;BME280;19126;47.472;7.850;2024-02-23T08:50:24;73151.94;;;-146.25;70.09
32761;BME280;19126;47.472;7.850;2024-02-23T08:52:52;73161.97;;;-146.25;66.84
32761;BME280;19126;47.472;7.850;2024-02-23T08:55:19;73131.91;;;-146.25;66.81
32761;BME280;19126;47.472;7.850;2024-02-23T08:57:47;73099.84;;;-146.25;63.07
32761;BME280;19126;47.472;7.850;2024-02-23T09:00:17;73051.75;;;-146.25;63.42
32761;BME280;19126;47.472;7.850;2024-02-23T09:02:44;73025.69;;;-146.25;57.61
32761;BME280;19126;47.472;7.850;2024-02-23T09:05:11;73033.69;;;-146.25;54.53
32761;BME280;19126;47.472;7.850;2024-02-23T09:07:39;73017.66;;;-146.25;53.85
32761;BME280;19126;47.472;7.850;2024-02-23T09:10:07;72983.59;;;-146.25;53.85
32761;BME280;19126;47.472;7.850;2024-02-23T09:12:34;72963.56;;;-146.25;54.00
32761;BME280;19126;47.472;7.850;2024-02-23T09:15:02;72969.56;;;-146.25;52.51
32761;BME280;19126;47.472;7.850;2024-02-23T09:17:31;72957.56;;;-146.25;52.08
32761;BME280;19126;47.472;7.850;2024-02-23T09:19:58;72949.53;;;-146.25;50.78
32761;BME280;19126;47.472;7.850;2024-02-23T09:22:25;72961.56;;;-146.25;49.00
32761;BME280;19126;47.472;7.850;2024-02-23T09:24:53;72951.53;;;-146.25;49.56
32761;BME280;19126;47.472;7.850;2024-02-23T09:27:22;72933.50;;;-146.25;49.38
32761;BME280;19126;47.472;7.850;2024-02-23T09:29:49;72903.44;;;-146.25;50.39
32761;BME280;19126;47.472;7.850;2024-02-23T09:32:17;72893.44;;;-146.25;49.40
32761;BME280;19126;47.472;7.850;2024-02-23T09:34:45;72873.38;;;-146.25;49.10
32761;BME280;19126;47.472;7.850;2024-02-23T09:37:12;72851.34;;;-146.25;48.30
32761;BME280;19126;47.472;7.850;2024-02-23T09:39:40;72849.34;;;-146.25;46.52
32761;BME280;19126;47.472;7.850;2024-02-23T09:42:10;72845.34;;;-146.25;48.88
32761;BME280;19126;47.472;7.850;2024-02-23T09:44:38;72805.25;;;-146.25;48.32
32761;BME280;19126;47.472;7.850;2024-02-23T09:47:06;72759.16;;;-146.25;47.72
32761;BME280;19126;47.472;7.850;2024-02-23T09:49:39;72743.13;;;-146.25;47.06
32761;BME280;19126;47.472;7.850;2024-02-23T09:52:09;72729.13;;;-146.25;45.98
32761;BME280;19126;47.472;7.850;2024-02-23T09:54:37;72715.09;;;-146.25;44.45
32761;BME280;19126;47.472;7.850;2024-02-23T09:57:08;72731.13;;;-146.25;45.38
32761;BME280;19126;47.472;7.850;2024-02-23T09:59:36;72713.09;;;-146.25;43.88
32761;BME280;19126;47.472;7.850;2024-02-23T10:02:08;72697.06;;;-146.25;47.07
32761;BME280;19126;47.472;7.850;2024-02-23T10:04:36;72703.06;;;-146.25;44.63
32761;BME280;19126;47.472;7.850;2024-02-23T10:07:05;72695.03;;;-146.25;44.96
32761;BME280;19126;47.472;7.850;2024-02-23T10:09:34;72663.00;;;-146.25;45.03
32761;BME280;19126;47.472;7.850;2024-02-23T10:12:03;72663.00;;;-146.25;43.75
32761;BME280;19126;47.472;7.850;2024-02-23T10:14:30;72665.00;;;-146.25;43.12
32761;BME280;19126;47.472;7.850;2024-02-23T10:16:57;72679.00;;;-146.25;42.90
32761;BME280;19126;47.472;7.850;2024-02-23T10:19:26;72644.94;;;-146.25;42.87
32761;BME280;19126;47.472;7.850;2024-02-23T10:21:55;72574.81;;;-146.25;43.80
32761;BME280;19126;47.472;7.850;2024-02-23T10:24:24;72538.75;;;-146.25;42.68
32761;BME280;19126;47.472;7.850;2024-02-23T10:26:53;72584.84;;;-146.25;41.17
32761;BME280;19126;47.472;7.850;2024-02-23T10:29:21;72586.84;;;-146.25;43.49
32761;BME280;19126;47.472;7.850;2024-02-23T10:31:48;72598.88;;;-146.25;41.87
32761;BME280;19126;47.472;7.850;2024-02-23T10:34:19;72604.88;;;-146.25;42.48
32761;BME280;19126;47.472;7.850;2024-02-23T10:36:47;72608.88;;;-146.25;41.21
32761;BME280;19126;47.472;7.850;2024-02-23T10:39:17;72618.91;;;-146.25;40.99
32761;BME280;19126;47.472;7.850;2024-02-23T10:41:52;72602.88;;;-146.25;40.91
32761;BME280;19126;47.472;7.850;2024-02-23T10:44:23;72588.84;;;-146.25;41.01
32761;BME280;19126;47.472;7.850;2024-02-23T10:46:51;72608.88;;;-146.25;41.34
32761;BME280;19126;47.472;7.850;2024-02-23T10:49:19;72608.88;;;-146.25;41.73
32761;BME280;19126;47.472;7.850;2024-02-23T10:51:49;72604.88;;;-146.25;41.58
32761;BME280;19126;47.472;7.850;2024-02-23T10:54:19;72582.84;;;-146.25;41.54
32761;BME280;19126;47.472;7.850;2024-02-23T10:56:49;72580.84;;;-146.25;41.26
32761;BME280;19126;47.472;7.850;2024-02-23T10:59:17;72588.84;;;-146.25;41.17
32761;BME280;19126;47.472;7.850;2024-02-23T11:01:48;72576.81;;;-146.25;41.81
32761;BME280;19126;47.472;7.850;2024-02-23T11:04:17;72570.81;;;-146.25;40.71
32761;BME280;19126;47.472;7.850;2024-02-23T11:06:50;72580.84;;;-146.25;39.43
32761;BME280;19126;47.472;7.850;2024-02-23T11:09:21;72564.81;;;-146.25;41.46
32761;BME280;19126;47.472;7.850;2024-02-23T11:11:56;72558.78;;;-146.25;42.18
32761;BME280;19126;47.472;7.850;2024-02-23T11:14:30;72552.78;;;-146.25;41.46
32761;BME280;19126;47.472;7.850;2024-02-23T11:17:00;72574.81;;;-146.25;41.05
32761;BME280;19126;47.472;7.850;2024-02-23T11:19:39;72570.81;;;-146.25;42.99
32761;BME280;19126;47.472;7.850;2024-02-23T11:22:10;72548.78;;;-146.25;39.71
32761;BME280;19126;47.472;7.850;2024-02-23T11:24:43;72592.84;;;-146.25;40.33
32761;BME280;19126;47.472;7.850;2024-02-23T11:27:14;72608.88;;;-146.25;41.46
32761;BME280;19126;47.472;7.850;2024-02-23T11:29:46;72618.91;;;-146.25;40.11
32761;BME280;19126;47.472;7.850;2024-02-23T11:32:17;72606.88;;;-146.25;40.45
32761;BME280;19126;47.472;7.850;2024-02-23T11:34:54;72582.84;;;-146.25;41.21
32761;BME280;19126;47.472;7.850;2024-02-23T11:37:23;72588.84;;;-146.25;40.91
32761;BME280;19126;47.472;7.850;2024-02-23T11:39:50;72608.88;;;-146.25;42.59
32761;BME280;19126;47.472;7.850;2024-02-23T11:42:18;72626.91;;;-146.25;43.55
32761;BME280;19126;47.472;7.850;2024-02-23T11:44:46;72624.91;;;-146.25;41.57
32761;BME280;19126;47.472;7.850;2024-02-23T11:47:14;72634.94;;;-146.25;41.73
32761;BME280;19126;47.472;7.850;2024-02-23T11:49:44;72658.97;;;-146.25;41.31
32761;BME280;19126;47.472;7.850;2024-02-23T11:52:11;72660.97;;;-146.25;41.48
32761;BME280;19126;47.472;7.850;2024-02-23T11:54:39;72671.00;;;-146.25;40.12
32761;BME280;19126;47.472;7.850;2024-02-23T11:57:06;72671.00;;;-146.25;42.49
32761;BME280;19126;47.472;7.850;2024-02-23T11:59:34;72650.97;;;-146.25;42.53
32761;BME280;19126;47.472;7.850;2024-02-23T12:02:01;72614.91;;;-146.25;40.63
32761;BME280;19126;47.472;7.850;2024-02-23T12:04:28;72618.91;;;-146.25;41.16
32761;BME280;19126;47.472;7.850;2024-02-23T12:06:58;72636.94;;;-146.25;41.58
32761;BME280;19126;47.472;7.850;2024-02-23T12:09:25;72642.94;;;-146.25;41.97
32761;BME280;19126;47.472;7.850;2024-02-23T12:11:52;72663.00;;;-146.25;41.89
32761;BME280;19126;47.472;7.850;2024-02-23T12:14:20;72667.00;;;-146.25;41.61
32761;BME280;19126;47.472;7.850;2024-02-23T12:16:47;72675.00;;;-146.25;40.54
32761;BME280;19126;47.472;7.850;2024-02-23T12:19:15;72681.03;;;-146.25;41.74
32761;BME280;19126;47.472;7.850;2024-02-23T12:21:45;72683.03;;;-146.25;41.32
32761;BME280;19126;47.472;7.850;2024-02-23T12:24:14;72695.03;;;-146.25;40.81
32761;BME280;19126;47.472;7.850;2024-02-23T12:26:42;72693.03;;;-146.25;41.52
32761;BME280;19126;47.472;7.850;2024-02-23T12:29:10;72697.06;;;-146.25;40.72
32761;BME280;19126;47.472;7.850;2024-02-23T12:31:37;72711.06;;;-146.25;40.51
32761;BME280;19126;47.472;7.850;2024-02-23T12:34:04;72715.09;;;-146.25;41.06
32761;BME280;19126;47.472;7.850;2024-02-23T12:36:36;72707.06;;;-146.25;40.88
32761;BME280;19126;47.472;7.850;2024-02-23T12:39:03;72711.06;;;-146.25;40.53
32761;BME280;19126;47.472;7.850;2024-02-23T12:41:32;72695.03;;;-146.25;42.07
32761;BME280;19126;47.472;7.850;2024-02-23T12:43:59;72685.03;;;-146.25;41.46